sensor_id;sensor_type;location;lat;lon;timestamp;temperature;humidity
8824;DHT22;4448;50.904;4.694;2022-09-12T00:01:58;15.80;99.90
8824;DHT22;4448;50.904;4.694;2022-09-12T00:04:24;15.70;99.90
8824;DHT22;4448;50.904;4.694;2022-09-12T00:06:51;15.70;99.90
8824;DHT22;4448;50.904;4.694;2022-09-12T00:09:16;15.60;99.90
8824;DHT22;4448;50.904;4.694;2022-09-12T00:11:44;15.60;99.90
8824;DHT22;4448;50.904;4.694;2022-09-12T00:14:13;15.60;99.90
8824;DHT22;4448;50.904;4.694;2022-09-12T00:16:38;15.60;99.90
8824;DHT22;4448;50.904;4.694;2022-09-12T00:19:05;15.60;99.90
8824;DHT22;4448;50.904;4.694;2022-09-12T00:21:33;15.70;99.90
8824;DHT22;4448;50.904;4.694;2022-09-12T00:23:59;15.60;99.90
8824;DHT22;4448;50.904;4.694;2022-09-12T00:26:24;15.40;99.90
8824;DHT22;4448;50.904;4.694;2022-09-12T00:28:51;15.40;99.90
8824;DHT22;4448;50.904;4.694;2022-09-12T00:31:19;15.20;99.90
8824;DHT22;4448;50.904;4.694;2022-09-12T00:33:45;15.20;99.90
8824;DHT22;4448;50.904;4.694;2022-09-12T00:36:15;15.10;99.90
8824;DHT22;4448;50.904;4.694;2022-09-12T00:38:42;15.10;99.90
8824;DHT22;4448;50.904;4.694;2022-09-12T00:41:24;15.10;99.90
8824;DHT22;4448;50.904;4.694;2022-09-12T00:43:52;15.10;99.90
8824;DHT22;4448;50.904;4.694;2022-09-12T00:46:36;15.10;99.90
8824;DHT22;4448;50.904;4.694;2022-09-12T00:49:15;15.20;99.90
8824;DHT22;4448;50.904;4.694;2022-09-12T00:51:45;15.30;99.90
8824;DHT22;4448;50.904;4.694;2022-09-12T00:54:18;15.50;99.90
8824;DHT22;4448;50.904;4.694;2022-09-12T00:56:47;15.40;99.90
8824;DHT22;4448;50.904;4.694;2022-09-12T00:59:21;15.50;99.90
8824;DHT22;4448;50.904;4.694;2022-09-12T01:01:49;15.50;99.90
8824;DHT22;4448;50.904;4.694;2022-09-12T01:04:16;15.40;99.90
8824;DHT22;4448;50.904;4.694;2022-09-12T01:06:43;15.40;99.90
8824;DHT22;4448;50.904;4.694;2022-09-12T01:09:16;15.40;99.90
8824;DHT22;4448;50.904;4.694;2022-09-12T01:11:42;15.40;99.90
8824;DHT22;4448;50.904;4.694;2022-09-12T01:14:10;15.50;99.90
8824;DHT22;4448;50.904;4.694;2022-09-12T01:16:37;15.50;99.90
8824;DHT22;4448;50.904;4.694;2022-09-12T01:30:23;15.70;99.90
8824;DHT22;4448;50.904;4.694;2022-09-12T01:38:26;15.40;99.90
8824;DHT22;4448;50.904;4.694;2022-09-12T01:40:58;15.40;99.90
8824;DHT22;4448;50.904;4.694;2022-09-12T01:43:35;15.20;99.90
8824;DHT22;4448;50.904;4.694;2022-09-12T01:46:10;15.10;99.90
8824;DHT22;4448;50.904;4.694;2022-09-12T01:51:27;14.70;99.90
8824;DHT22;4448;50.904;4.694;2022-09-12T01:54:04;14.60;99.90
8824;DHT22;4448;50.904;4.694;2022-09-12T01:56:34;14.70;99.90
8824;DHT22;4448;50.904;4.694;2022-09-12T01:59:14;14.70;99.90
8824;DHT22;4448;50.904;4.694;2022-09-12T02:01:51;14.80;99.90
8824;DHT22;4448;50.904;4.694;2022-09-12T02:04:27;14.70;99.90
8824;DHT22;4448;50.904;4.694;2022-09-12T02:09:53;14.60;99.90
8824;DHT22;4448;50.904;4.694;2022-09-12T02:12:27;14.50;99.90
8824;DHT22;4448;50.904;4.694;2022-09-12T02:14:59;14.50;99.90
8824;DHT22;4448;50.904;4.694;2022-09-12T02:17:28;14.50;99.90
8824;DHT22;4448;50.904;4.694;2022-09-12T02:19:59;14.50;99.90
8824;DHT22;4448;50.904;4.694;2022-09-12T02:22:28;14.50;99.90
8824;DHT22;4448;50.904;4.694;2022-09-12T02:24:59;14.40;99.90
8824;DHT22;4448;50.904;4.694;2022-09-12T02:27:29;14.60;99.90
8824;DHT22;4448;50.904;4.694;2022-09-12T02:29:58;14.40;99.90
8824;DHT22;4448;50.904;4.694;2022-09-12T02:32:36;14.40;99.90
8824;DHT22;4448;50.904;4.694;2022-09-12T02:40:37;14.50;99.90
8824;DHT22;4448;50.904;4.694;2022-09-12T02:43:04;14.40;99.90
8824;DHT22;4448;50.904;4.694;2022-09-12T02:45:31;14.50;99.90
8824;DHT22;4448;50.904;4.694;2022-09-12T02:48:04;14.50;99.90
8824;DHT22;4448;50.904;4.694;2022-09-12T02:50:32;14.50;99.90
8824;DHT22;4448;50.904;4.694;2022-09-12T02:52:59;14.40;99.90
8824;DHT22;4448;50.904;4.694;2022-09-12T02:55:35;14.40;99.90
8824;DHT22;4448;50.904;4.694;2022-09-12T02:58:06;14.20;99.90
8824;DHT22;4448;50.904;4.694;2022-09-12T03:06:36;14.00;99.90
8824;DHT22;4448;50.904;4.694;2022-09-12T03:09:11;14.00;99.90
8824;DHT22;4448;50.904;4.694;2022-09-12T03:12:00;14.00;99.90
8824;DHT22;4448;50.904;4.694;2022-09-12T03:17:12;14.00;99.90
8824;DHT22;4448;50.904;4.694;2022-09-12T03:20:02;14.00;99.90
8824;DHT22;4448;50.904;4.694;2022-09-12T03:25:19;14.00;99.90
8824;DHT22;4448;50.904;4.694;2022-09-12T03:28:03;14.00;99.90
8824;DHT22;4448;50.904;4.694;2022-09-12T03:30:39;14.10;99.90
8824;DHT22;4448;50.904;4.694;2022-09-12T03:33:09;14.10;99.90
8824;DHT22;4448;50.904;4.694;2022-09-12T03:35:35;14.20;99.90
8824;DHT22;4448;50.904;4.694;2022-09-12T03:38:00;14.20;99.90
8824;DHT22;4448;50.904;4.694;2022-09-12T03:40:26;14.20;99.90
8824;DHT22;4448;50.904;4.694;2022-09-12T03:42:52;14.20;99.90
8824;DHT22;4448;50.904;4.694;2022-09-12T03:45:18;14.10;99.90
8824;DHT22;4448;50.904;4.694;2022-09-12T03:47:43;14.00;99.90
8824;DHT22;4448;50.904;4.694;2022-09-12T03:50:09;14.10;99.90
8824;DHT22;4448;50.904;4.694;2022-09-12T03:52:34;13.80;99.90
8824;DHT22;4448;50.904;4.694;2022-09-12T03:55:00;13.80;99.90
8824;DHT22;4448;50.904;4.694;2022-09-12T03:57:26;13.70;99.90
8824;DHT22;4448;50.904;4.694;2022-09-12T03:59:51;13.80;99.90
8824;DHT22;4448;50.904;4.694;2022-09-12T04:02:17;13.80;99.90
8824;DHT22;4448;50.904;4.694;2022-09-12T04:04:43;13.90;99.90
8824;DHT22;4448;50.904;4.694;2022-09-12T04:07:14;13.90;99.90
8824;DHT22;4448;50.904;4.694;2022-09-12T04:09:39;13.90;99.90
8824;DHT22;4448;50.904;4.694;2022-09-12T04:12:05;13.90;99.90
8824;DHT22;4448;50.904;4.694;2022-09-12T04:14:31;13.80;99.90
8824;DHT22;4448;50.904;4.694;2022-09-12T04:16:57;13.80;99.90
8824;DHT22;4448;50.904;4.694;2022-09-12T04:19:24;13.80;99.90
8824;DHT22;4448;50.904;4.694;2022-09-12T04:21:51;13.80;99.90
8824;DHT22;4448;50.904;4.694;2022-09-12T04:24:17;13.80;99.90
8824;DHT22;4448;50.904;4.694;2022-09-12T04:26:42;13.80;99.90
8824;DHT22;4448;50.904;4.694;2022-09-12T04:29:10;13.80;99.90
8824;DHT22;4448;50.904;4.694;2022-09-12T04:31:36;13.80;99.90
8824;DHT22;4448;50.904;4.694;2022-09-12T04:34:02;13.80;99.90
8824;DHT22;4448;50.904;4.694;2022-09-12T04:36:28;13.90;99.90
8824;DHT22;4448;50.904;4.694;2022-09-12T04:38:54;14.00;99.90
8824;DHT22;4448;50.904;4.694;2022-09-12T04:41:22;14.00;99.90
8824;DHT22;4448;50.904;4.694;2022-09-12T04:43:54;14.10;99.90
8824;DHT22;4448;50.904;4.694;2022-09-12T04:46:23;14.00;99.90
8824;DHT22;4448;50.904;4.694;2022-09-12T04:48:49;13.90;99.90
8824;DHT22;4448;50.904;4.694;2022-09-12T04:51:17;14.10;99.90
8824;DHT22;4448;50.904;4.694;2022-09-12T04:53:50;14.00;99.90
8824;DHT22;4448;50.904;4.694;2022-09-12T04:56:16;14.00;99.90
8824;DHT22;4448;50.904;4.694;2022-09-12T04:58:42;14.00;99.90
8824;DHT22;4448;50.904;4.694;2022-09-12T05:01:11;13.90;99.90
8824;DHT22;4448;50.904;4.694;2022-09-12T05:03:41;13.80;99.90
8824;DHT22;4448;50.904;4.694;2022-09-12T05:06:14;13.80;99.90
8824;DHT22;4448;50.904;4.694;2022-09-12T05:08:40;13.80;99.90
8824;DHT22;4448;50.904;4.694;2022-09-12T05:11:11;13.80;99.90
8824;DHT22;4448;50.904;4.694;2022-09-12T05:13:38;13.90;99.90
8824;DHT22;4448;50.904;4.694;2022-09-12T05:16:05;13.80;99.90
8824;DHT22;4448;50.904;4.694;2022-09-12T05:18:32;13.80;99.90
8824;DHT22;4448;50.904;4.694;2022-09-12T05:20:59;13.80;99.90
8824;DHT22;4448;50.904;4.694;2022-09-12T05:23:26;13.70;99.90
8824;DHT22;4448;50.904;4.694;2022-09-12T05:25:53;13.70;99.90
8824;DHT22;4448;50.904;4.694;2022-09-12T05:28:20;13.60;99.90
8824;DHT22;4448;50.904;4.694;2022-09-12T05:30:47;13.60;99.90
8824;DHT22;4448;50.904;4.694;2022-09-12T05:33:13;13.50;99.90
8824;DHT22;4448;50.904;4.694;2022-09-12T05:35:40;13.60;99.90
8824;DHT22;4448;50.904;4.694;2022-09-12T05:38:08;13.60;99.90
8824;DHT22;4448;50.904;4.694;2022-09-12T05:40:34;13.60;99.90
8824;DHT22;4448;50.904;4.694;2022-09-12T05:43:00;13.70;99.90
8824;DHT22;4448;50.904;4.694;2022-09-12T05:45:25;13.70;99.90
8824;DHT22;4448;50.904;4.694;2022-09-12T05:47:52;13.80;99.90
8824;DHT22;4448;50.904;4.694;2022-09-12T05:50:20;13.80;99.90
8824;DHT22;4448;50.904;4.694;2022-09-12T05:52:46;13.90;99.90
8824;DHT22;4448;50.904;4.694;2022-09-12T05:55:12;13.90;99.90
8824;DHT22;4448;50.904;4.694;2022-09-12T05:57:37;13.90;99.90
8824;DHT22;4448;50.904;4.694;2022-09-12T06:00:04;13.90;99.90
8824;DHT22;4448;50.904;4.694;2022-09-12T06:02:30;14.00;99.90
8824;DHT22;4448;50.904;4.694;2022-09-12T06:04:56;14.10;99.90
8824;DHT22;4448;50.904;4.694;2022-09-12T06:07:22;14.10;99.90
8824;DHT22;4448;50.904;4.694;2022-09-12T06:09:47;14.10;99.90
8824;DHT22;4448;50.904;4.694;2022-09-12T06:12:13;14.10;99.90
8824;DHT22;4448;50.904;4.694;2022-09-12T06:14:39;14.00;99.90
8824;DHT22;4448;50.904;4.694;2022-09-12T06:17:04;14.10;99.90
8824;DHT22;4448;50.904;4.694;2022-09-12T06:19:30;13.80;99.90
8824;DHT22;4448;50.904;4.694;2022-09-12T06:21:56;13.70;99.90
8824;DHT22;4448;50.904;4.694;2022-09-12T06:24:21;13.80;99.90
8824;DHT22;4448;50.904;4.694;2022-09-12T06:26:48;13.70;99.90
8824;DHT22;4448;50.904;4.694;2022-09-12T06:29:14;13.70;99.90
8824;DHT22;4448;50.904;4.694;2022-09-12T06:31:41;13.70;99.90
8824;DHT22;4448;50.904;4.694;2022-09-12T06:34:10;13.90;99.90
8824;DHT22;4448;50.904;4.694;2022-09-12T06:36:44;14.00;99.90
8824;DHT22;4448;50.904;4.694;2022-09-12T06:39:18;14.10;99.90
8824;DHT22;4448;50.904;4.694;2022-09-12T06:41:45;14.20;99.90
8824;DHT22;4448;50.904;4.694;2022-09-12T06:44:13;14.30;99.90
8824;DHT22;4448;50.904;4.694;2022-09-12T06:46:41;14.50;99.90
8824;DHT22;4448;50.904;4.694;2022-09-12T06:49:06;14.60;99.90
8824;DHT22;4448;50.904;4.694;2022-09-12T06:51:32;14.70;99.90
8824;DHT22;4448;50.904;4.694;2022-09-12T06:53:58;14.90;99.90
8824;DHT22;4448;50.904;4.694;2022-09-12T06:56:27;15.10;99.90
8824;DHT22;4448;50.904;4.694;2022-09-12T06:58:55;15.10;99.90
8824;DHT22;4448;50.904;4.694;2022-09-12T07:01:23;15.30;99.90
8824;DHT22;4448;50.904;4.694;2022-09-12T07:03:51;15.40;99.90
8824;DHT22;4448;50.904;4.694;2022-09-12T07:06:19;15.90;99.90
8824;DHT22;4448;50.904;4.694;2022-09-12T07:08:46;17.10;99.90
8824;DHT22;4448;50.904;4.694;2022-09-12T07:11:21;17.80;99.90
8824;DHT22;4448;50.904;4.694;2022-09-12T07:13:49;18.30;99.90
8824;DHT22;4448;50.904;4.694;2022-09-12T07:16:15;18.90;99.90
8824;DHT22;4448;50.904;4.694;2022-09-12T07:18:41;19.10;99.90
8824;DHT22;4448;50.904;4.694;2022-09-12T07:21:10;18.90;99.90
8824;DHT22;4448;50.904;4.694;2022-09-12T07:23:36;18.90;99.90
8824;DHT22;4448;50.904;4.694;2022-09-12T07:26:03;19.30;99.90
8824;DHT22;4448;50.904;4.694;2022-09-12T07:28:31;19.50;99.90
8824;DHT22;4448;50.904;4.694;2022-09-12T07:30:57;20.00;99.90
8824;DHT22;4448;50.904;4.694;2022-09-12T07:33:28;20.30;99.90
8824;DHT22;4448;50.904;4.694;2022-09-12T07:36:00;20.40;99.90
8824;DHT22;4448;50.904;4.694;2022-09-12T07:38:25;20.50;99.90
8824;DHT22;4448;50.904;4.694;2022-09-12T07:40:51;20.60;99.90
8824;DHT22;4448;50.904;4.694;2022-09-12T07:43:16;20.40;99.90
8824;DHT22;4448;50.904;4.694;2022-09-12T07:45:42;20.20;99.90
8824;DHT22;4448;50.904;4.694;2022-09-12T07:48:08;20.60;99.90
8824;DHT22;4448;50.904;4.694;2022-09-12T07:50:34;20.90;99.90
8824;DHT22;4448;50.904;4.694;2022-09-12T07:53:02;21.20;99.90
8824;DHT22;4448;50.904;4.694;2022-09-12T07:55:29;21.40;99.90
8824;DHT22;4448;50.904;4.694;2022-09-12T07:57:54;21.50;99.90
8824;DHT22;4448;50.904;4.694;2022-09-12T08:00:20;21.70;99.90
8824;DHT22;4448;50.904;4.694;2022-09-12T08:02:50;21.70;99.90
8824;DHT22;4448;50.904;4.694;2022-09-12T08:05:16;21.70;99.90
8824;DHT22;4448;50.904;4.694;2022-09-12T08:07:42;21.70;99.90
8824;DHT22;4448;50.904;4.694;2022-09-12T08:10:08;21.80;99.90
8824;DHT22;4448;50.904;4.694;2022-09-12T08:12:34;22.10;99.90
8824;DHT22;4448;50.904;4.694;2022-09-12T08:14:59;22.40;99.90
8824;DHT22;4448;50.904;4.694;2022-09-12T08:17:25;22.60;99.90
8824;DHT22;4448;50.904;4.694;2022-09-12T08:19:51;22.70;99.90
8824;DHT22;4448;50.904;4.694;2022-09-12T08:22:17;22.70;99.90
8824;DHT22;4448;50.904;4.694;2022-09-12T08:24:45;22.70;99.90
8824;DHT22;4448;50.904;4.694;2022-09-12T08:27:10;22.90;99.90
8824;DHT22;4448;50.904;4.694;2022-09-12T08:29:36;23.00;99.90
8824;DHT22;4448;50.904;4.694;2022-09-12T08:32:02;23.00;99.90
8824;DHT22;4448;50.904;4.694;2022-09-12T08:34:28;23.10;99.90
8824;DHT22;4448;50.904;4.694;2022-09-12T08:36:53;23.20;99.90
8824;DHT22;4448;50.904;4.694;2022-09-12T08:39:19;23.20;99.90
8824;DHT22;4448;50.904;4.694;2022-09-12T08:41:47;23.30;99.90
8824;DHT22;4448;50.904;4.694;2022-09-12T08:47:14;23.70;99.90
8824;DHT22;4448;50.904;4.694;2022-09-12T08:52:46;23.90;99.90
8824;DHT22;4448;50.904;4.694;2022-09-12T08:57:55;23.90;99.90
8824;DHT22;4448;50.904;4.694;2022-09-12T09:00:21;23.80;99.90
8824;DHT22;4448;50.904;4.694;2022-09-12T09:08:22;23.90;99.90
8824;DHT22;4448;50.904;4.694;2022-09-12T09:11:12;24.00;99.90
8824;DHT22;4448;50.904;4.694;2022-09-12T09:16:49;24.00;99.90
8824;DHT22;4448;50.904;4.694;2022-09-12T09:19:20;23.70;99.90
8824;DHT22;4448;50.904;4.694;2022-09-12T09:22:14;23.80;99.90
8824;DHT22;4448;50.904;4.694;2022-09-12T09:24:48;24.00;99.90
8824;DHT22;4448;50.904;4.694;2022-09-12T09:29:51;24.20;99.90
8824;DHT22;4448;50.904;4.694;2022-09-12T09:32:25;24.30;99.90
8824;DHT22;4448;50.904;4.694;2022-09-12T09:34:51;24.70;99.90
8824;DHT22;4448;50.904;4.694;2022-09-12T09:37:55;25.20;99.90
8824;DHT22;4448;50.904;4.694;2022-09-12T09:43:31;25.80;99.90
8824;DHT22;4448;50.904;4.694;2022-09-12T09:45:57;25.80;99.90
8824;DHT22;4448;50.904;4.694;2022-09-12T09:48:31;26.00;99.90
8824;DHT22;4448;50.904;4.694;2022-09-12T09:51:03;26.00;99.90
8824;DHT22;4448;50.904;4.694;2022-09-12T09:53:34;26.00;99.90
8824;DHT22;4448;50.904;4.694;2022-09-12T09:56:04;26.30;99.90
8824;DHT22;4448;50.904;4.694;2022-09-12T09:58:33;26.50;99.90
8824;DHT22;4448;50.904;4.694;2022-09-12T10:01:01;26.50;99.90
8824;DHT22;4448;50.904;4.694;2022-09-12T10:03:36;26.90;99.90
8824;DHT22;4448;50.904;4.694;2022-09-12T10:08:46;27.10;99.90
8824;DHT22;4448;50.904;4.694;2022-09-12T10:11:21;27.10;99.90
8824;DHT22;4448;50.904;4.694;2022-09-12T10:13:51;27.40;99.90
8824;DHT22;4448;50.904;4.694;2022-09-12T10:16:20;27.30;99.90
8824;DHT22;4448;50.904;4.694;2022-09-12T10:18:47;27.20;99.90
8824;DHT22;4448;50.904;4.694;2022-09-12T10:21:38;27.60;99.90
8824;DHT22;4448;50.904;4.694;2022-09-12T10:26:42;28.60;99.90
8824;DHT22;4448;50.904;4.694;2022-09-12T10:29:14;29.00;99.90
8824;DHT22;4448;50.904;4.694;2022-09-12T10:31:53;29.20;99.90
8824;DHT22;4448;50.904;4.694;2022-09-12T10:34:29;29.10;99.90
8824;DHT22;4448;50.904;4.694;2022-09-12T10:40:06;29.50;99.90
8824;DHT22;4448;50.904;4.694;2022-09-12T10:45:42;29.20;99.90
8824;DHT22;4448;50.904;4.694;2022-09-12T10:48:27;28.90;99.90
8824;DHT22;4448;50.904;4.694;2022-09-12T10:50:53;28.80;99.90
8824;DHT22;4448;50.904;4.694;2022-09-12T10:53:20;29.10;99.90
8824;DHT22;4448;50.904;4.694;2022-09-12T10:56:11;29.10;99.90
8824;DHT22;4448;50.904;4.694;2022-09-12T11:06:54;28.50;99.90
8824;DHT22;4448;50.904;4.694;2022-09-12T11:09:23;28.90;99.90
8824;DHT22;4448;50.904;4.694;2022-09-12T11:12:13;29.10;99.90
8824;DHT22;4448;50.904;4.694;2022-09-12T11:26:12;29.70;99.90
8824;DHT22;4448;50.904;4.694;2022-09-12T11:34:09;30.90;99.60
8824;DHT22;4448;50.904;4.694;2022-09-12T11:39:23;31.00;98.40
8824;DHT22;4448;50.904;4.694;2022-09-12T11:41:57;30.80;98.90
8824;DHT22;4448;50.904;4.694;2022-09-12T11:44:46;30.60;97.90
8824;DHT22;4448;50.904;4.694;2022-09-12T11:47:13;31.00;97.90
8824;DHT22;4448;50.904;4.694;2022-09-12T11:49:44;31.50;97.60
8824;DHT22;4448;50.904;4.694;2022-09-12T11:52:23;31.60;96.40
8824;DHT22;4448;50.904;4.694;2022-09-12T11:55:03;31.40;96.10
8824;DHT22;4448;50.904;4.694;2022-09-12T11:57:38;31.00;97.10
8824;DHT22;4448;50.904;4.694;2022-09-12T12:08:00;32.20;96.10
8824;DHT22;4448;50.904;4.694;2022-09-12T12:10:36;32.50;95.00
8824;DHT22;4448;50.904;4.694;2022-09-12T12:15:52;32.30;94.50
8824;DHT22;4448;50.904;4.694;2022-09-12T12:18:22;31.70;94.90
8824;DHT22;4448;50.904;4.694;2022-09-12T12:20:49;31.50;95.40
8824;DHT22;4448;50.904;4.694;2022-09-12T12:23:29;31.80;94.80
8824;DHT22;4448;50.904;4.694;2022-09-12T12:25:58;31.90;94.20
8824;DHT22;4448;50.904;4.694;2022-09-12T12:31:16;32.50;94.00
8824;DHT22;4448;50.904;4.694;2022-09-12T12:36:09;32.90;93.50
8824;DHT22;4448;50.904;4.694;2022-09-12T12:38:37;31.70;93.30
8824;DHT22;4448;50.904;4.694;2022-09-12T12:43:46;30.80;94.10
8824;DHT22;4448;50.904;4.694;2022-09-12T12:46:13;31.60;93.50
8824;DHT22;4448;50.904;4.694;2022-09-12T12:48:57;32.00;93.20
8824;DHT22;4448;50.904;4.694;2022-09-12T12:51:48;32.50;92.40
8824;DHT22;4448;50.904;4.694;2022-09-12T12:59:47;33.70;91.20
8824;DHT22;4448;50.904;4.694;2022-09-12T13:02:18;33.30;91.10
8824;DHT22;4448;50.904;4.694;2022-09-12T13:04:45;33.40;91.30
8824;DHT22;4448;50.904;4.694;2022-09-12T13:07:29;33.50;91.10
8824;DHT22;4448;50.904;4.694;2022-09-12T13:09:57;33.50;91.00
8824;DHT22;4448;50.904;4.694;2022-09-12T13:12:44;34.00;90.80
8824;DHT22;4448;50.904;4.694;2022-09-12T13:18:22;33.40;89.80
8824;DHT22;4448;50.904;4.694;2022-09-12T13:23:42;32.90;90.50
8824;DHT22;4448;50.904;4.694;2022-09-12T13:26:20;32.50;90.50
8824;DHT22;4448;50.904;4.694;2022-09-12T13:28:46;32.10;90.60
8824;DHT22;4448;50.904;4.694;2022-09-12T13:31:25;32.20;90.70
8824;DHT22;4448;50.904;4.694;2022-09-12T13:33:59;31.50;91.00
8824;DHT22;4448;50.904;4.694;2022-09-12T13:39:26;31.00;91.40
8824;DHT22;4448;50.904;4.694;2022-09-12T13:44:28;30.90;91.30
8824;DHT22;4448;50.904;4.694;2022-09-12T13:46:58;30.80;91.10
8824;DHT22;4448;50.904;4.694;2022-09-12T13:49:35;31.30;91.60
8824;DHT22;4448;50.904;4.694;2022-09-12T13:52:07;31.90;91.10
8824;DHT22;4448;50.904;4.694;2022-09-12T13:54:36;31.60;90.90
8824;DHT22;4448;50.904;4.694;2022-09-12T13:57:03;30.60;91.10
8824;DHT22;4448;50.904;4.694;2022-09-12T13:59:40;30.80;91.80
8824;DHT22;4448;50.904;4.694;2022-09-12T14:02:21;31.20;91.40
8824;DHT22;4448;50.904;4.694;2022-09-12T14:04:48;31.70;90.90
8824;DHT22;4448;50.904;4.694;2022-09-12T14:07:47;31.60;90.60
8824;DHT22;4448;50.904;4.694;2022-09-12T14:12:51;31.80;90.10
8824;DHT22;4448;50.904;4.694;2022-09-12T14:15:23;31.80;90.10
8824;DHT22;4448;50.904;4.694;2022-09-12T14:17:55;32.00;90.40
8824;DHT22;4448;50.904;4.694;2022-09-12T14:20:24;32.50;90.20
8824;DHT22;4448;50.904;4.694;2022-09-12T14:22:50;32.80;90.20
8824;DHT22;4448;50.904;4.694;2022-09-12T14:25:19;32.70;89.80
8824;DHT22;4448;50.904;4.694;2022-09-12T14:27:50;32.30;90.50
8824;DHT22;4448;50.904;4.694;2022-09-12T14:33:17;32.00;90.00
8824;DHT22;4448;50.904;4.694;2022-09-12T14:35:48;31.90;89.90
8824;DHT22;4448;50.904;4.694;2022-09-12T14:40:52;32.80;89.80
8824;DHT22;4448;50.904;4.694;2022-09-12T14:43:26;32.90;88.60
8824;DHT22;4448;50.904;4.694;2022-09-12T14:46:16;32.80;89.00
8824;DHT22;4448;50.904;4.694;2022-09-12T14:49:37;33.10;89.00
8824;DHT22;4448;50.904;4.694;2022-09-12T14:51:56;33.00;89.00
8824;DHT22;4448;50.904;4.694;2022-09-12T14:56:54;32.80;88.60
8824;DHT22;4448;50.904;4.694;2022-09-12T14:59:38;32.50;89.60
8824;DHT22;4448;50.904;4.694;2022-09-12T15:07:30;33.30;87.00
8824;DHT22;4448;50.904;4.694;2022-09-12T15:09:58;33.10;87.30
8824;DHT22;4448;50.904;4.694;2022-09-12T15:12:24;32.90;87.60
8824;DHT22;4448;50.904;4.694;2022-09-12T15:14:50;32.50;86.90
8824;DHT22;4448;50.904;4.694;2022-09-12T15:17:16;32.00;87.70
8824;DHT22;4448;50.904;4.694;2022-09-12T15:19:41;31.90;88.40
8824;DHT22;4448;50.904;4.694;2022-09-12T15:22:11;31.70;88.40
8824;DHT22;4448;50.904;4.694;2022-09-12T15:24:37;32.10;87.80
8824;DHT22;4448;50.904;4.694;2022-09-12T15:27:13;32.20;87.30
8824;DHT22;4448;50.904;4.694;2022-09-12T15:29:38;32.40;87.20
8824;DHT22;4448;50.904;4.694;2022-09-12T15:32:05;32.80;87.30
8824;DHT22;4448;50.904;4.694;2022-09-12T15:34:32;33.40;86.40
8824;DHT22;4448;50.904;4.694;2022-09-12T15:36:57;33.70;85.40
8824;DHT22;4448;50.904;4.694;2022-09-12T15:39:24;33.40;85.60
8824;DHT22;4448;50.904;4.694;2022-09-12T15:41:50;33.60;85.80
8824;DHT22;4448;50.904;4.694;2022-09-12T15:44:16;34.00;84.50
8824;DHT22;4448;50.904;4.694;2022-09-12T15:46:41;34.30;83.10
8824;DHT22;4448;50.904;4.694;2022-09-12T15:49:07;34.20;82.00
8824;DHT22;4448;50.904;4.694;2022-09-12T15:51:33;34.10;82.70
8824;DHT22;4448;50.904;4.694;2022-09-12T15:53:59;34.30;81.90
8824;DHT22;4448;50.904;4.694;2022-09-12T15:56:25;34.00;82.20
8824;DHT22;4448;50.904;4.694;2022-09-12T15:58:51;33.60;82.50
8824;DHT22;4448;50.904;4.694;2022-09-12T16:01:17;33.30;82.70
8824;DHT22;4448;50.904;4.694;2022-09-12T16:03:45;33.20;82.90
8824;DHT22;4448;50.904;4.694;2022-09-12T16:06:11;32.70;83.00
8824;DHT22;4448;50.904;4.694;2022-09-12T16:08:37;32.80;82.90
8824;DHT22;4448;50.904;4.694;2022-09-12T16:11:06;32.90;82.80
8824;DHT22;4448;50.904;4.694;2022-09-12T16:13:32;33.00;80.90
8824;DHT22;4448;50.904;4.694;2022-09-12T16:15:59;32.80;81.10
8824;DHT22;4448;50.904;4.694;2022-09-12T16:18:26;32.30;81.20
8824;DHT22;4448;50.904;4.694;2022-09-12T16:20:55;32.10;81.90
8824;DHT22;4448;50.904;4.694;2022-09-12T16:23:22;31.30;83.10
8824;DHT22;4448;50.904;4.694;2022-09-12T16:26:04;30.30;84.80
8824;DHT22;4448;50.904;4.694;2022-09-12T16:28:31;29.40;87.10
8824;DHT22;4448;50.904;4.694;2022-09-12T16:31:02;28.90;88.20
8824;DHT22;4448;50.904;4.694;2022-09-12T16:33:29;28.70;88.10
8824;DHT22;4448;50.904;4.694;2022-09-12T16:36:16;28.60;89.00
8824;DHT22;4448;50.904;4.694;2022-09-12T16:38:47;28.40;89.50
8824;DHT22;4448;50.904;4.694;2022-09-12T16:41:14;28.30;89.30
8824;DHT22;4448;50.904;4.694;2022-09-12T16:43:40;28.30;90.00
8824;DHT22;4448;50.904;4.694;2022-09-12T16:46:19;28.30;90.10
8824;DHT22;4448;50.904;4.694;2022-09-12T16:48:47;28.80;90.00
8824;DHT22;4448;50.904;4.694;2022-09-12T16:51:14;29.00;90.00
8824;DHT22;4448;50.904;4.694;2022-09-12T16:53:40;29.10;90.20
8824;DHT22;4448;50.904;4.694;2022-09-12T16:56:07;29.30;89.70
8824;DHT22;4448;50.904;4.694;2022-09-12T16:58:34;29.90;88.70
8824;DHT22;4448;50.904;4.694;2022-09-12T17:01:09;30.40;87.60
8824;DHT22;4448;50.904;4.694;2022-09-12T17:03:35;30.70;86.90
8824;DHT22;4448;50.904;4.694;2022-09-12T17:06:03;30.60;87.70
8824;DHT22;4448;50.904;4.694;2022-09-12T17:08:29;30.60;88.40
8824;DHT22;4448;50.904;4.694;2022-09-12T17:10:59;30.60;88.20
8824;DHT22;4448;50.904;4.694;2022-09-12T17:13:26;30.70;87.40
8824;DHT22;4448;50.904;4.694;2022-09-12T17:15:59;30.50;88.30
8824;DHT22;4448;50.904;4.694;2022-09-12T17:18:34;30.10;89.20
8824;DHT22;4448;50.904;4.694;2022-09-12T17:21:01;29.80;89.90
8824;DHT22;4448;50.904;4.694;2022-09-12T17:23:30;29.50;90.60
8824;DHT22;4448;50.904;4.694;2022-09-12T17:26:01;29.20;90.70
8824;DHT22;4448;50.904;4.694;2022-09-12T17:28:32;29.00;91.20
8824;DHT22;4448;50.904;4.694;2022-09-12T17:31:06;28.80;91.70
8824;DHT22;4448;50.904;4.694;2022-09-12T17:33:32;28.50;92.30
8824;DHT22;4448;50.904;4.694;2022-09-12T17:36:17;28.20;92.80
8824;DHT22;4448;50.904;4.694;2022-09-12T17:38:44;27.90;94.40
8824;DHT22;4448;50.904;4.694;2022-09-12T17:41:22;27.70;94.80
8824;DHT22;4448;50.904;4.694;2022-09-12T17:43:51;27.40;94.90
8824;DHT22;4448;50.904;4.694;2022-09-12T17:46:30;27.30;94.70
8824;DHT22;4448;50.904;4.694;2022-09-12T17:48:59;27.10;95.10
8824;DHT22;4448;50.904;4.694;2022-09-12T17:51:30;27.00;96.00
8824;DHT22;4448;50.904;4.694;2022-09-12T17:54:02;26.90;96.10
8824;DHT22;4448;50.904;4.694;2022-09-12T17:56:31;26.80;96.40
8824;DHT22;4448;50.904;4.694;2022-09-12T17:59:01;26.60;96.80
8824;DHT22;4448;50.904;4.694;2022-09-12T18:01:29;26.50;97.70
8824;DHT22;4448;50.904;4.694;2022-09-12T18:04:17;26.40;98.00
8824;DHT22;4448;50.904;4.694;2022-09-12T18:06:46;26.20;98.50
8824;DHT22;4448;50.904;4.694;2022-09-12T18:09:17;25.90;98.50
8824;DHT22;4448;50.904;4.694;2022-09-12T18:11:52;25.70;99.40
8824;DHT22;4448;50.904;4.694;2022-09-12T18:14:38;25.60;99.90
8824;DHT22;4448;50.904;4.694;2022-09-12T18:17:07;25.30;99.90
8824;DHT22;4448;50.904;4.694;2022-09-12T18:19:40;25.20;99.90
8824;DHT22;4448;50.904;4.694;2022-09-12T18:22:12;25.10;99.90
8824;DHT22;4448;50.904;4.694;2022-09-12T18:24:39;24.90;99.90
8824;DHT22;4448;50.904;4.694;2022-09-12T18:27:07;24.80;99.90
8824;DHT22;4448;50.904;4.694;2022-09-12T18:29:46;24.60;99.90
8824;DHT22;4448;50.904;4.694;2022-09-12T18:32:13;24.50;99.90
8824;DHT22;4448;50.904;4.694;2022-09-12T18:35:07;24.40;99.90
8824;DHT22;4448;50.904;4.694;2022-09-12T18:37:36;24.20;99.90
8824;DHT22;4448;50.904;4.694;2022-09-12T18:40:08;24.10;99.90
8824;DHT22;4448;50.904;4.694;2022-09-12T18:42:35;23.90;99.90
8824;DHT22;4448;50.904;4.694;2022-09-12T18:45:01;23.80;99.90
8824;DHT22;4448;50.904;4.694;2022-09-12T18:47:31;23.60;99.90
8824;DHT22;4448;50.904;4.694;2022-09-12T18:50:00;23.60;99.90
8824;DHT22;4448;50.904;4.694;2022-09-12T18:52:29;23.50;99.90
8824;DHT22;4448;50.904;4.694;2022-09-12T18:55:16;23.40;99.90